Time;durP1;ratioP1;P1;durP2;ratioP2;P2;SDS_P1;SDS_P2;PMS_P1;PMS_P2;Temp;Humidity;BMP_temperature;BMP_pressure;BME280_temperature;BME280_humidity;BME280_pressure;Samples;Min_cycle;Max_cycle;Signal;HPM_P1;HPM_P2
2023/09/30 00:03:50;;;;;;;8.60;2.92;;;10.50;99.90;;;;;;7303089;32;20195;-57
2023/09/30 00:07:52;;;;;;;8.10;3.03;;;10.40;99.90;;;;;;7300027;32;20108;-55
2023/09/30 00:11:55;;;;;;;6.00;2.80;;;10.40;99.90;;;;;;7303109;32;20112;-56
2023/09/30 00:15:57;;;;;;;8.20;2.95;;;10.50;99.90;;;;;;7297389;32;20144;-56
2023/09/30 00:19:59;;;;;;;9.07;2.70;;;10.50;99.90;;;;;;7299960;32;20130;-55
2023/09/30 00:24:01;;;;;;;12.43;3.35;;;10.50;99.90;;;;;;7301957;32;20227;-55
2023/09/30 00:28:02;;;;;;;7.75;3.10;;;10.40;99.90;;;;;;7296143;32;20163;-56
2023/09/30 00:32:04;;;;;;;8.82;3.30;;;10.50;99.90;;;;;;7295370;32;20525;-55
2023/09/30 00:36:08;;;;;;;8.85;3.05;;;10.60;99.90;;;;;;7302391;32;20564;-56
2023/09/30 00:40:11;;;;;;;10.00;3.87;;;10.60;99.90;;;;;;7302601;32;20147;-55
2023/09/30 00:44:13;;;;;;;6.87;3.33;;;10.60;99.90;;;;;;7300897;32;20127;-56
2023/09/30 00:48:16;;;;;;;10.13;3.42;;;10.60;99.90;;;;;;7301026;32;20129;-57
2023/09/30 00:52:18;;;;;;;11.68;3.70;;;10.70;99.90;;;;;;7302442;32;20178;-56
2023/09/30 00:56:23;;;;;;;6.05;3.05;;;10.70;99.90;;;;;;7302541;32;20128;-55
2023/09/30 01:00:25;;;;;;;7.32;3.22;;;10.70;99.90;;;;;;7299013;32;20741;-56
2023/09/30 01:04:27;;;;;;;7.30;2.90;;;10.70;99.90;;;;;;7299341;32;20250;-56
2023/09/30 01:08:30;;;;;;;8.05;3.50;;;10.60;99.90;;;;;;7298625;32;20133;-56
2023/09/30 01:12:32;;;;;;;7.20;3.37;;;10.60;99.90;;;;;;7301419;32;20139;-56
2023/09/30 01:16:33;;;;;;;7.35;3.08;;;10.50;99.90;;;;;;7299366;32;20187;-55
2023/09/30 01:20:36;;;;;;;9.18;3.20;;;10.60;99.90;;;;;;7301278;32;20112;-55
2023/09/30 01:24:40;;;;;;;9.70;3.40;;;10.70;99.90;;;;;;7302443;32;20119;-56
2023/09/30 01:28:42;;;;;;;14.43;4.05;;;10.70;99.90;;;;;;7299672;32;20364;-56
2023/09/30 01:32:44;;;;;;;10.88;4.15;;;10.70;99.90;;;;;;7300511;32;20176;-56
2023/09/30 01:36:46;;;;;;;10.55;3.50;;;10.80;99.90;;;;;;7300745;32;20600;-56
2023/09/30 01:40:49;;;;;;;13.98;4.30;;;10.70;99.90;;;;;;7300470;32;20111;-56
2023/09/30 01:44:50;;;;;;;8.80;3.60;;;10.70;99.90;;;;;;7299736;32;20146;-56
2023/09/30 01:48:52;;;;;;;10.60;3.87;;;10.80;99.90;;;;;;7300629;32;20111;-56
2023/09/30 01:52:54;;;;;;;9.98;3.28;;;10.70;99.90;;;;;;7300471;32;20138;-56
2023/09/30 01:56:55;;;;;;;6.72;3.03;;;10.80;99.90;;;;;;7299469;32;20470;-56
2023/09/30 02:01:04;;;;;;;6.53;3.47;;;10.80;99.90;;;;;;7300781;32;20494;-56
2023/09/30 02:05:08;;;;;;;10.57;3.65;;;10.80;99.90;;;;;;7301332;32;20198;-56
2023/09/30 02:09:09;;;;;;;6.90;2.87;;;10.60;99.90;;;;;;7299557;32;20194;-56
2023/09/30 02:13:11;;;;;;;9.35;3.10;;;10.50;99.90;;;;;;7301560;32;20116;-56
2023/09/30 02:17:13;;;;;;;7.18;3.00;;;10.50;99.90;;;;;;7299550;32;20506;-55
2023/09/30 02:21:15;;;;;;;8.23;3.35;;;10.40;99.90;;;;;;7301056;32;20104;-55
2023/09/30 02:25:17;;;;;;;8.30;3.55;;;10.30;99.90;;;;;;7303377;32;20330;-56
2023/09/30 02:29:32;;;;;;;13.10;3.60;;;10.30;99.90;;;;;;7246159;32;20186;-55
2023/09/30 02:33:38;;;;;;;7.47;2.95;;;10.20;99.90;;;;;;7248228;32;20636;-56
2023/09/30 02:37:40;;;;;;;8.77;3.05;;;10.20;99.90;;;;;;7251390;32;20138;-56
2023/09/30 02:41:43;;;;;;;9.98;2.92;;;10.10;99.90;;;;;;7250803;32;20185;-56
2023/09/30 02:45:44;;;;;;;10.77;3.37;;;10.00;99.90;;;;;;7249536;32;20147;-56
2023/09/30 02:49:46;;;;;;;8.93;2.72;;;10.00;99.90;;;;;;7248891;32;20527;-56
2023/09/30 02:53:48;;;;;;;8.15;2.92;;;10.00;99.90;;;;;;7248490;32;20136;-57
2023/09/30 02:57:50;;;;;;;8.65;2.83;;;9.90;99.90;;;;;;7251702;32;20498;-56
2023/09/30 03:01:51;;;;;;;9.40;2.80;;;9.90;99.90;;;;;;7301058;32;20178;-56
2023/09/30 03:05:54;;;;;;;9.07;3.03;;;9.80;99.90;;;;;;7295567;32;20198;-56
2023/09/30 03:09:55;;;;;;;9.63;2.90;;;9.90;99.90;;;;;;7300494;32;20334;-56
2023/09/30 03:13:58;;;;;;;7.85;2.75;;;9.80;99.90;;;;;;7300198;32;20125;-57
2023/09/30 03:18:00;;;;;;;9.18;3.15;;;9.80;99.90;;;;;;7297578;32;20249;-57
2023/09/30 03:22:04;;;;;;;6.72;3.10;;;9.70;99.90;;;;;;7301953;32;20618;-57
2023/09/30 03:26:09;;;;;;;8.68;3.17;;;9.70;99.90;;;;;;7292523;32;20302;-57
2023/09/30 03:30:16;;;;;;;8.90;3.92;;;9.50;99.90;;;;;;7293936;32;20529;-55
2023/09/30 03:34:18;;;;;;;7.80;3.10;;;9.50;99.90;;;;;;7300630;32;20205;-56
2023/09/30 03:38:20;;;;;;;7.25;3.37;;;9.50;99.90;;;;;;7302217;32;20181;-57
2023/09/30 03:42:21;;;;;;;8.23;3.65;;;9.40;99.90;;;;;;7300116;32;20158;-58
2023/09/30 03:46:23;;;;;;;11.90;3.70;;;9.50;99.90;;;;;;7298407;32;20112;-56
2023/09/30 03:50:26;;;;;;;13.45;4.45;;;9.50;99.90;;;;;;7295222;32;20202;-56
2023/09/30 03:54:27;;;;;;;7.78;3.58;;;9.40;99.90;;;;;;7300416;32;20119;-58
2023/09/30 03:58:29;;;;;;;11.38;4.10;;;9.50;99.90;;;;;;7300084;32;20129;-57
2023/09/30 04:02:31;;;;;;;6.53;3.15;;;9.50;99.90;;;;;;7297711;32;20108;-56
2023/09/30 04:06:33;;;;;;;9.73;3.25;;;9.50;99.90;;;;;;7303394;32;20540;-55
2023/09/30 04:10:35;;;;;;;5.07;2.55;;;9.40;99.90;;;;;;7298224;32;20662;-55
2023/09/30 04:14:36;;;;;;;10.20;4.25;;;9.40;99.90;;;;;;7299064;32;20214;-56
2023/09/30 04:18:41;;;;;;;7.22;3.62;;;9.30;99.90;;;;;;7295195;32;20140;-57
2023/09/30 04:22:48;;;;;;;9.65;3.95;;;9.30;99.90;;;;;;7297531;32;20103;-57
2023/09/30 04:26:52;;;;;;;7.32;3.53;;;9.40;99.90;;;;;;7299481;32;20130;-56
2023/09/30 04:30:54;;;;;;;8.10;3.78;;;9.30;99.90;;;;;;7295003;32;20252;-55
2023/09/30 04:34:56;;;;;;;8.02;3.62;;;9.30;99.90;;;;;;7299841;32;20165;-56
2023/09/30 04:39:00;;;;;;;8.85;4.05;;;9.30;99.90;;;;;;7300119;32;20627;-58
2023/09/30 04:43:02;;;;;;;8.30;3.87;;;9.20;99.90;;;;;;7297407;32;20104;-56
2023/09/30 04:47:04;;;;;;;9.15;3.72;;;9.20;99.90;;;;;;7293833;32;20261;-57
2023/09/30 04:51:08;;;;;;;7.87;3.55;;;9.20;99.90;;;;;;7289148;32;20127;-57
2023/09/30 04:55:12;;;;;;;9.80;3.53;;;9.20;99.90;;;;;;7292978;32;20120;-57
2023/09/30 04:59:14;;;;;;;9.35;3.40;;;9.10;99.90;;;;;;7293010;32;20131;-55
2023/09/30 05:03:15;;;;;;;11.02;4.25;;;9.10;99.90;;;;;;7295958;32;20537;-56
2023/09/30 05:07:17;;;;;;;9.23;4.07;;;9.00;99.90;;;;;;7294727;32;20162;-57
2023/09/30 05:11:19;;;;;;;9.93;4.30;;;9.10;99.90;;;;;;7299623;32;20176;-56
2023/09/30 05:15:21;;;;;;;11.20;4.00;;;9.00;99.90;;;;;;7295543;32;20211;-56
2023/09/30 05:19:24;;;;;;;6.95;4.03;;;9.00;99.90;;;;;;7296136;32;20187;-57
2023/09/30 05:23:26;;;;;;;11.07;4.07;;;8.90;99.90;;;;;;7299161;32;20112;-56
2023/09/30 05:27:28;;;;;;;9.55;4.10;;;8.90;99.90;;;;;;7298922;32;20155;-57
2023/09/30 05:31:29;;;;;;;8.20;4.05;;;8.80;99.90;;;;;;7294880;32;20660;-56
2023/09/30 05:35:32;;;;;;;9.57;4.80;;;8.80;99.90;;;;;;7291452;32;20104;-56
2023/09/30 05:39:34;;;;;;;8.05;4.10;;;8.80;99.90;;;;;;7300275;32;20111;-56
2023/09/30 05:43:36;;;;;;;8.15;4.18;;;8.80;99.90;;;;;;7293745;32;20123;-57
2023/09/30 05:47:39;;;;;;;9.68;4.70;;;8.70;99.90;;;;;;7296104;32;20153;-56
2023/09/30 05:51:42;;;;;;;8.98;4.55;;;8.70;99.90;;;;;;7295888;32;20580;-56
2023/09/30 05:55:45;;;;;;;11.38;4.60;;;8.70;99.90;;;;;;7299341;32;20193;-56
2023/09/30 05:59:47;;;;;;;15.23;4.70;;;8.80;99.90;;;;;;7299135;32;20202;-55
2023/09/30 06:03:49;;;;;;;10.73;5.05;;;8.80;99.90;;;;;;7293033;32;20474;-57
2023/09/30 06:07:51;;;;;;;9.27;4.68;;;8.80;99.90;;;;;;7298943;32;20140;-55
2023/09/30 06:11:53;;;;;;;10.30;5.30;;;8.80;99.90;;;;;;7295313;32;20142;-55
2023/09/30 06:15:55;;;;;;;7.30;4.80;;;8.80;99.90;;;;;;7297594;32;20483;-54
2023/09/30 06:20:03;;;;;;;9.15;4.80;;;8.90;99.90;;;;;;7296283;32;20112;-58
2023/09/30 06:24:07;;;;;;;11.65;5.00;;;9.00;99.90;;;;;;7300166;32;20787;-58
2023/09/30 06:28:09;;;;;;;10.73;5.10;;;9.00;99.90;;;;;;7296941;32;20192;-57
2023/09/30 06:32:11;;;;;;;14.20;6.60;;;9.10;99.90;;;;;;7298352;32;20126;-57
2023/09/30 06:36:13;;;;;;;10.40;6.05;;;9.10;99.90;;;;;;7299330;32;20243;-57
2023/09/30 06:40:15;;;;;;;14.30;5.55;;;9.30;99.90;;;;;;7298618;32;20174;-57
2023/09/30 06:44:17;;;;;;;12.25;5.90;;;9.40;99.90;;;;;;7298432;32;20417;-56
2023/09/30 06:48:19;;;;;;;14.75;7.00;;;9.60;99.90;;;;;;7298354;32;20381;-58
2023/09/30 06:52:21;;;;;;;16.27;7.65;;;9.70;99.90;;;;;;7296352;32;20139;-58
2023/09/30 06:56:22;;;;;;;25.55;9.43;;;9.90;99.90;;;;;;7300032;32;20222;-55
2023/09/30 07:00:25;;;;;;;22.33;10.95;;;10.10;99.90;;;;;;7294186;32;20140;-56
2023/09/30 07:04:27;;;;;;;24.95;12.05;;;10.60;99.90;;;;;;7303006;32;20205;-57
2023/09/30 07:08:29;;;;;;;27.17;12.77;;;10.80;99.90;;;;;;7304204;32;20416;-56
2023/09/30 07:12:31;;;;;;;29.92;14.90;;;11.00;99.90;;;;;;7301388;32;20124;-57
2023/09/30 07:16:33;;;;;;;22.90;13.88;;;11.10;99.90;;;;;;7300511;32;20108;-57
2023/09/30 07:20:35;;;;;;;29.33;13.10;;;11.40;99.90;;;;;;7297768;32;20321;-56
2023/09/30 07:24:39;;;;;;;23.50;12.68;;;11.70;99.90;;;;;;7300607;32;20603;-56
2023/09/30 07:28:40;;;;;;;25.85;14.32;;;11.80;99.90;;;;;;7297945;32;20124;-56
2023/09/30 07:32:43;;;;;;;28.85;14.32;;;12.00;99.90;;;;;;7292132;32;20131;-57
2023/09/30 07:36:46;;;;;;;26.73;14.45;;;12.10;99.90;;;;;;7301222;32;20111;-57
2023/09/30 07:40:48;;;;;;;30.33;14.85;;;12.20;99.90;;;;;;7303070;32;20250;-57
2023/09/30 07:44:50;;;;;;;24.35;13.98;;;12.40;99.90;;;;;;7298065;32;20646;-57
2023/09/30 07:48:52;;;;;;;31.05;15.15;;;12.50;99.90;;;;;;7300850;32;20236;-58
2023/09/30 07:52:54;;;;;;;30.75;14.07;;;12.70;99.90;;;;;;7296847;32;20775;-57
2023/09/30 07:56:57;;;;;;;30.90;15.30;;;12.90;99.90;;;;;;7293713;32;20589;-57
2023/09/30 08:01:00;;;;;;;27.75;15.13;;;13.00;99.90;;;;;;7301816;32;20117;-57
2023/09/30 08:05:02;;;;;;;28.48;15.63;;;13.10;99.90;;;;;;7299712;32;20360;-57
2023/09/30 08:09:09;;;;;;;28.52;15.88;;;13.20;99.90;;;;;;7290658;32;20128;-55
2023/09/30 08:13:11;;;;;;;30.60;16.40;;;13.30;99.90;;;;;;7297222;32;20177;-56
2023/09/30 08:17:13;;;;;;;27.40;14.60;;;13.40;99.90;;;;;;7300556;32;20169;-57
2023/09/30 08:21:14;;;;;;;24.83;15.63;;;13.40;99.90;;;;;;7298913;32;20235;-57
2023/09/30 08:25:16;;;;;;;29.25;14.48;;;13.60;99.90;;;;;;7298860;32;20221;-57
2023/09/30 08:29:18;;;;;;;23.73;13.88;;;13.80;99.90;;;;;;7303513;32;20287;-56
2023/09/30 08:33:20;;;;;;;22.50;13.20;;;14.00;99.90;;;;;;7301658;32;20108;-57
2023/09/30 08:37:21;;;;;;;27.25;13.05;;;14.20;99.90;;;;;;7300346;32;20135;-57
2023/09/30 08:41:32;;;;;;;19.60;11.68;;;14.50;99.90;;;;;;7300228;32;20225;-57
2023/09/30 08:45:38;;;;;;;18.58;11.88;;;14.60;99.90;;;;;;7294794;32;20158;-57
2023/09/30 08:49:43;;;;;;;20.00;11.40;;;14.70;99.90;;;;;;7300374;32;20194;-57
2023/09/30 08:53:46;;;;;;;21.17;10.50;;;15.00;99.90;;;;;;7301312;32;20768;-57
2023/09/30 08:57:49;;;;;;;18.98;9.50;;;15.10;99.90;;;;;;7295357;32;20589;-58
2023/09/30 09:01:52;;;;;;;14.52;9.82;;;15.30;99.90;;;;;;7296581;32;20140;-57
2023/09/30 09:05:57;;;;;;;18.23;10.05;;;15.40;99.90;;;;;;7300990;32;20174;-56
2023/09/30 09:10:15;;;;;;;20.42;8.70;;;15.50;99.90;;;;;;7299142;32;20304;-57
2023/09/30 09:14:16;;;;;;;16.48;6.87;;;15.70;99.90;;;;;;7300057;32;20240;-58
2023/09/30 09:18:35;;;;;;;17.08;8.20;;;16.00;99.90;;;;;;7298391;32;20221;-53
2023/09/30 09:22:42;;;;;;;12.40;6.75;;;16.40;99.90;;;;;;7299805;32;20129;-54
2023/09/30 09:26:43;;;;;;;11.77;6.60;;;16.50;99.90;;;;;;7294210;32;20119;-56
2023/09/30 09:30:45;;;;;;;11.27;6.25;;;16.80;99.90;;;;;;7294644;32;21061;-56
2023/09/30 09:35:01;;;;;;;13.32;6.75;;;17.50;99.90;;;;;;7291610;32;20134;-57
2023/09/30 09:39:03;;;;;;;10.23;5.87;;;18.10;99.90;;;;;;7300212;32;20116;-57
2023/09/30 09:43:05;;;;;;;15.13;6.15;;;18.90;99.90;;;;;;7295933;32;20206;-56
2023/09/30 09:47:09;;;;;;;11.05;5.40;;;19.90;99.90;;;;;;7295968;32;20214;-57
2023/09/30 09:51:12;;;;;;;11.52;5.80;;;21.10;99.90;;;;;;7296019;32;20181;-57
2023/09/30 09:55:19;;;;;;;7.15;4.40;;;21.40;99.90;;;;;;7292187;32;20161;-57
2023/09/30 09:59:23;;;;;;;9.70;4.68;;;22.10;99.90;;;;;;7297516;32;20147;-57
2023/09/30 10:03:25;;;;;;;7.97;4.70;;;23.40;99.90;;;;;;7293218;32;20150;-57
2023/09/30 10:07:30;;;;;;;11.07;5.15;;;23.00;99.90;;;;;;7293926;32;20131;-57
2023/09/30 10:11:32;;;;;;;8.98;4.70;;;22.80;99.90;;;;;;7298398;32;20127;-57
2023/09/30 10:15:37;;;;;;;9.05;4.50;;;22.70;99.90;;;;;;7298903;32;20169;-57
2023/09/30 10:20:07;;;;;;;9.32;5.07;;;22.30;99.90;;;;;;7299595;32;20112;-56
2023/09/30 10:24:35;;;;;;;10.68;3.53;;;21.70;99.90;;;;;;7301487;32;20280;-57
2023/09/30 10:28:47;;;;;;;14.18;4.22;;;21.00;99.90;;;;;;7293984;32;20112;-58
2023/09/30 10:32:52;;;;;;;11.77;4.78;;;20.50;99.90;;;;;;7296787;32;20119;-57
2023/09/30 10:36:54;;;;;;;11.27;3.87;;;19.80;99.90;;;;;;7301790;32;20116;-57
2023/09/30 10:40:56;;;;;;;12.80;4.53;;;19.30;99.90;;;;;;7302366;32;20104;-56
2023/09/30 10:44:58;;;;;;;13.50;4.93;;;18.90;99.90;;;;;;7294046;32;20289;-57
2023/09/30 10:49:24;;;;;;;10.45;5.00;;;18.50;99.90;;;;;;7303628;32;20104;-57
2023/09/30 10:53:28;;;;;;;9.43;4.05;;;18.30;99.90;;;;;;7295921;32;20494;-58
2023/09/30 10:57:29;;;;;;;8.77;3.80;;;18.10;99.90;;;;;;7298055;32;20127;-56
2023/09/30 11:01:34;;;;;;;7.62;2.80;;;17.90;99.90;;;;;;7299387;32;20104;-58
2023/09/30 11:05:36;;;;;;;7.28;3.10;;;17.90;99.90;;;;;;7303071;32;20171;-58
2023/09/30 11:10:03;;;;;;;9.85;3.00;;;17.90;99.90;;;;;;7302178;32;20225;-58
2023/09/30 11:14:27;;;;;;;8.52;2.70;;;18.00;99.90;;;;;;7302984;32;20553;-57
2023/09/30 11:18:31;;;;;;;8.05;2.67;;;18.00;99.90;;;;;;7293940;32;20552;-57
2023/09/30 11:22:34;;;;;;;4.70;2.70;;;18.20;99.90;;;;;;7297417;32;20225;-58
2023/09/30 11:26:37;;;;;;;8.25;2.60;;;18.30;99.90;;;;;;7302141;32;20108;-57
2023/09/30 11:31:00;;;;;;;9.10;3.37;;;18.40;99.90;;;;;;7303291;32;20423;-56
2023/09/30 11:35:02;;;;;;;5.57;2.58;;;18.60;99.90;;;;;;7303722;32;20510;-57
2023/09/30 11:39:04;;;;;;;8.65;2.12;;;18.40;99.90;;;;;;7302660;32;20517;-58
2023/09/30 11:43:11;;;;;;;5.70;2.15;;;18.80;99.90;;;;;;7300361;32;20108;-57
2023/09/30 11:47:14;;;;;;;8.85;2.47;;;19.00;99.90;;;;;;7295424;32;20142;-57
2023/09/30 11:51:16;;;;;;;9.55;3.08;;;19.00;99.90;;;;;;7301000;32;20138;-54
2023/09/30 11:55:21;;;;;;;7.43;3.00;;;19.20;99.90;;;;;;7301733;32;20130;-56
2023/09/30 11:59:23;;;;;;;6.78;2.90;;;19.10;99.90;;;;;;7288702;32;20128;-56
2023/09/30 12:03:27;;;;;;;9.75;2.85;;;18.80;99.90;;;;;;7294599;32;20548;-54
2023/09/30 12:07:28;;;;;;;6.87;2.60;;;18.70;99.90;;;;;;7296727;32;20618;-55
2023/09/30 12:11:31;;;;;;;6.07;2.80;;;18.80;99.90;;;;;;7297054;32;20112;-53
2023/09/30 12:15:32;;;;;;;6.53;3.08;;;19.00;99.90;;;;;;7298188;32;20274;-54
2023/09/30 12:19:34;;;;;;;6.15;2.75;;;19.10;99.90;;;;;;7295863;32;20210;-54
2023/09/30 12:23:39;;;;;;;8.40;2.42;;;19.10;99.90;;;;;;7294279;32;20127;-56
2023/09/30 12:27:41;;;;;;;5.47;2.50;;;19.10;99.90;;;;;;7294580;32;20781;-53
2023/09/30 12:31:46;;;;;;;7.22;2.72;;;19.20;99.90;;;;;;7297934;32;20127;-56
2023/09/30 12:35:54;;;;;;;7.53;2.70;;;19.10;99.90;;;;;;7295219;32;20179;-54
2023/09/30 12:39:56;;;;;;;6.90;2.47;;;19.20;99.90;;;;;;7295735;32;20172;-55
2023/09/30 12:43:58;;;;;;;5.53;2.47;;;19.40;99.90;;;;;;7294525;32;20180;-55
2023/09/30 12:47:59;;;;;;;6.22;2.60;;;19.60;99.90;;;;;;7292975;32;20425;-54
2023/09/30 12:52:01;;;;;;;8.18;2.50;;;19.50;99.90;;;;;;7298048;32;20842;-55
2023/09/30 12:56:03;;;;;;;7.25;2.17;;;19.40;99.90;;;;;;7297526;32;20155;-54
2023/09/30 13:00:09;;;;;;;5.45;2.35;;;19.30;99.90;;;;;;7295720;32;20917;-54
2023/09/30 13:04:11;;;;;;;6.80;2.58;;;19.10;99.90;;;;;;7294238;32;20182;-56
2023/09/30 13:08:12;;;;;;;7.57;2.62;;;19.20;99.90;;;;;;7297998;32;20251;-55
2023/09/30 13:12:14;;;;;;;4.85;2.62;;;19.20;99.90;;;;;;7297437;32;20181;-56
2023/09/30 13:16:16;;;;;;;5.50;2.15;;;19.50;99.90;;;;;;7296058;32;20259;-57
2023/09/30 13:20:18;;;;;;;6.47;2.37;;;19.50;99.90;;;;;;7296872;32;20195;-56
2023/09/30 13:24:20;;;;;;;6.78;2.22;;;19.60;99.90;;;;;;7294748;32;20683;-54
2023/09/30 13:28:21;;;;;;;9.88;2.90;;;19.70;99.90;;;;;;7300234;32;20135;-55
2023/09/30 13:32:23;;;;;;;5.85;2.05;;;19.70;99.90;;;;;;7296118;32;20576;-54
2023/09/30 13:36:25;;;;;;;4.70;2.30;;;19.60;99.90;;;;;;7300829;32;20543;-58
2023/09/30 13:40:27;;;;;;;6.43;2.00;;;19.50;99.90;;;;;;7297248;32;20403;-55
2023/09/30 13:44:28;;;;;;;4.65;2.17;;;19.20;99.90;;;;;;7299113;32;20115;-54
2023/09/30 13:48:30;;;;;;;6.15;1.90;;;19.20;99.90;;;;;;7295872;32;20274;-55
2023/09/30 13:52:33;;;;;;;4.75;1.75;;;19.10;99.90;;;;;;7298230;32;20190;-55
2023/09/30 13:56:36;;;;;;;3.25;1.60;;;19.00;99.90;;;;;;7295079;32;20120;-53
2023/09/30 14:00:41;;;;;;;4.55;1.75;;;18.90;99.90;;;;;;7294310;32;20461;-53
2023/09/30 14:04:43;;;;;;;8.45;2.33;;;18.90;99.90;;;;;;7289534;32;20134;-56
2023/09/30 14:08:45;;;;;;;6.05;2.37;;;18.90;99.90;;;;;;7296384;32;20207;-59
2023/09/30 14:12:47;;;;;;;5.93;2.10;;;18.80;99.90;;;;;;7295263;32;20657;-56
2023/09/30 14:16:49;;;;;;;5.75;2.03;;;18.70;99.90;;;;;;7300863;32;20107;-57
2023/09/30 14:20:51;;;;;;;4.95;1.87;;;18.50;99.90;;;;;;7305353;32;20275;-56
2023/09/30 14:24:52;;;;;;;6.12;2.08;;;18.50;99.90;;;;;;7298567;32;20147;-57
2023/09/30 14:28:54;;;;;;;8.00;2.42;;;18.50;99.90;;;;;;7303358;32;20157;-57
2023/09/30 14:32:56;;;;;;;5.60;1.77;;;18.50;99.90;;;;;;7303757;32;20674;-56
2023/09/30 14:36:58;;;;;;;5.70;2.20;;;18.50;99.90;;;;;;7305063;32;20107;-56
2023/09/30 14:41:00;;;;;;;6.03;2.03;;;18.70;99.90;;;;;;7300946;32;20589;-57
2023/09/30 14:45:02;;;;;;;8.57;2.70;;;18.70;99.90;;;;;;7306332;32;20126;-57
2023/09/30 14:49:06;;;;;;;7.80;2.35;;;18.70;99.90;;;;;;7305937;32;20292;-56
2023/09/30 14:53:08;;;;;;;5.50;2.03;;;18.70;99.90;;;;;;7303173;32;20520;-57
2023/09/30 14:57:10;;;;;;;5.03;2.03;;;18.70;99.90;;;;;;7301058;32;20104;-56
2023/09/30 15:01:12;;;;;;;3.83;1.77;;;18.50;99.90;;;;;;7299887;32;20549;-56
2023/09/30 15:05:14;;;;;;;7.85;2.05;;;18.60;99.90;;;;;;7304225;32;20139;-56
2023/09/30 15:09:16;;;;;;;6.22;1.98;;;18.40;99.90;;;;;;7295656;32;20819;-56
2023/09/30 15:13:17;;;;;;;5.93;2.62;;;18.30;99.90;;;;;;7298322;32;20112;-57
2023/09/30 15:17:19;;;;;;;4.72;1.80;;;18.20;99.90;;;;;;7302121;32;20130;-56
2023/09/30 15:21:21;;;;;;;5.90;2.05;;;18.10;99.90;;;;;;7302944;32;20331;-57
2023/09/30 15:25:23;;;;;;;4.32;2.03;;;18.10;99.90;;;;;;7298810;32;20289;-57
2023/09/30 15:29:24;;;;;;;5.35;1.95;;;18.10;99.90;;;;;;7299322;32;20439;-59
2023/09/30 15:33:28;;;;;;;5.87;1.85;;;18.00;99.90;;;;;;7299310;32;20867;-57
2023/09/30 15:37:29;;;;;;;5.30;2.00;;;17.90;99.90;;;;;;7302469;32;20199;-58
2023/09/30 15:41:31;;;;;;;5.82;2.37;;;17.90;99.90;;;;;;7296041;32;20737;-57
2023/09/30 15:45:36;;;;;;;4.53;2.10;;;17.80;99.90;;;;;;7300650;32;20126;-57
2023/09/30 15:49:37;;;;;;;5.43;2.25;;;17.60;99.90;;;;;;7302126;32;20160;-56
2023/09/30 15:53:39;;;;;;;5.35;2.72;;;17.60;99.90;;;;;;7291326;32;20198;-56
2023/09/30 15:57:42;;;;;;;4.40;1.85;;;17.50;99.90;;;;;;7302006;32;20963;-55
2023/09/30 16:01:44;;;;;;;5.93;2.00;;;17.50;99.90;;;;;;7302821;32;20131;-56
2023/09/30 16:05:46;;;;;;;4.47;1.75;;;17.40;99.90;;;;;;7297493;32;20227;-56
2023/09/30 16:09:48;;;;;;;3.80;2.05;;;17.30;99.90;;;;;;7300485;32;20245;-56
2023/09/30 16:13:51;;;;;;;3.90;1.87;;;17.10;99.90;;;;;;7300639;32;20112;-57
2023/09/30 16:17:54;;;;;;;4.68;2.28;;;17.00;99.90;;;;;;7300371;32;20564;-57
2023/09/30 16:21:56;;;;;;;9.32;2.97;;;16.90;99.90;;;;;;7300467;32;20138;-56
2023/09/30 16:25:58;;;;;;;5.80;2.58;;;16.70;99.90;;;;;;7297588;32;20104;-58
2023/09/30 16:29:59;;;;;;;4.72;2.22;;;16.60;99.90;;;;;;7295472;32;20209;-56
2023/09/30 16:34:01;;;;;;;6.60;2.30;;;16.40;99.90;;;;;;7301142;32;20295;-57
2023/09/30 16:38:03;;;;;;;6.20;2.60;;;16.30;99.90;;;;;;7297481;32;20105;-57
2023/09/30 16:42:05;;;;;;;6.47;2.90;;;16.20;99.90;;;;;;7296329;32;20131;-57
2023/09/30 16:46:07;;;;;;;6.80;2.75;;;15.90;99.90;;;;;;7301125;32;20116;-56
2023/09/30 16:50:09;;;;;;;5.68;2.78;;;15.80;99.90;;;;;;7297208;32;20572;-59
2023/09/30 16:54:11;;;;;;;4.43;2.58;;;15.70;99.90;;;;;;7300720;32;20116;-56
2023/09/30 16:58:13;;;;;;;4.53;2.50;;;15.50;99.90;;;;;;7298926;32;20123;-56
2023/09/30 17:02:17;;;;;;;7.35;2.40;;;15.30;99.90;;;;;;7301321;32;20129;-56
2023/09/30 17:06:19;;;;;;;6.37;2.58;;;15.10;99.90;;;;;;7298888;32;20226;-57
2023/09/30 17:10:20;;;;;;;4.95;2.22;;;14.90;99.90;;;;;;7293848;32;20184;-57
2023/09/30 17:14:22;;;;;;;4.05;2.22;;;14.80;99.90;;;;;;7300348;32;20262;-56
2023/09/30 17:18:24;;;;;;;4.25;2.30;;;14.60;99.90;;;;;;7300678;32;20116;-57
2023/09/30 17:22:26;;;;;;;7.50;2.30;;;14.50;99.90;;;;;;7294965;32;20242;-56
2023/09/30 17:26:28;;;;;;;5.12;2.50;;;14.30;99.90;;;;;;7293415;32;20232;-57
2023/09/30 17:30:32;;;;;;;4.05;2.03;;;14.20;99.90;;;;;;7296969;32;20274;-56
2023/09/30 17:34:43;;;;;;;3.70;2.15;;;14.10;99.90;;;;;;7298065;32;20190;-58
2023/09/30 17:38:45;;;;;;;6.12;2.60;;;13.90;99.90;;;;;;7299133;32;20116;-58
2023/09/30 17:42:46;;;;;;;4.57;2.70;;;13.80;99.90;;;;;;7293162;32;20312;-56
2023/09/30 17:46:48;;;;;;;5.95;3.35;;;13.70;99.90;;;;;;7292277;32;20552;-57
2023/09/30 17:50:50;;;;;;;6.12;2.83;;;13.60;99.90;;;;;;7301831;32;20112;-57
2023/09/30 17:54:52;;;;;;;5.37;2.83;;;13.50;99.90;;;;;;7301570;32;20134;-56
2023/09/30 17:58:55;;;;;;;4.25;2.67;;;13.40;99.90;;;;;;7305820;32;20104;-56
2023/09/30 18:02:57;;;;;;;5.65;2.70;;;13.30;99.90;;;;;;7303836;32;20608;-56
2023/09/30 18:06:59;;;;;;;7.05;2.50;;;13.20;99.90;;;;;;7300432;32;20112;-56
2023/09/30 18:11:01;;;;;;;4.72;2.90;;;13.00;99.90;;;;;;7296350;32;20213;-57
2023/09/30 18:15:03;;;;;;;6.00;3.00;;;13.00;99.90;;;;;;7300236;32;20155;-57
2023/09/30 18:19:05;;;;;;;6.28;2.60;;;13.00;99.90;;;;;;7304585;32;20116;-57
2023/09/30 18:23:07;;;;;;;4.70;2.58;;;12.90;99.90;;;;;;7301118;32;20235;-58
2023/09/30 18:27:08;;;;;;;6.50;2.95;;;12.80;99.90;;;;;;7296377;32;20633;-57
2023/09/30 18:31:17;;;;;;;9.88;3.22;;;12.70;99.90;;;;;;7303674;32;20104;-57
2023/09/30 18:35:19;;;;;;;6.50;2.78;;;12.60;99.90;;;;;;7305655;32;20111;-55
2023/09/30 18:39:21;;;;;;;4.07;1.98;;;12.40;99.90;;;;;;7299840;32;20560;-55
2023/09/30 18:43:29;;;;;;;5.28;2.78;;;12.40;99.90;;;;;;7293448;32;20342;-57
2023/09/30 18:47:31;;;;;;;5.32;2.60;;;12.40;99.90;;;;;;7290753;32;20230;-55
2023/09/30 18:51:32;;;;;;;5.10;2.22;;;12.30;99.90;;;;;;7298832;32;20196;-55
2023/09/30 18:55:36;;;;;;;6.57;2.92;;;12.20;99.90;;;;;;7296098;32;20562;-55
2023/09/30 18:59:38;;;;;;;5.43;2.83;;;12.10;99.90;;;;;;7303534;32;20172;-57
2023/09/30 19:03:41;;;;;;;7.68;2.80;;;12.10;99.90;;;;;;7301055;32;20485;-57
2023/09/30 19:07:43;;;;;;;12.20;3.47;;;11.90;99.90;;;;;;7304081;32;20100;-56
2023/09/30 19:11:45;;;;;;;4.97;2.70;;;11.90;99.90;;;;;;7301795;32;20472;-57
2023/09/30 19:15:47;;;;;;;6.97;3.30;;;11.80;99.90;;;;;;7301810;32;20750;-56
2023/09/30 19:19:49;;;;;;;5.47;3.20;;;11.80;99.90;;;;;;7290165;32;20104;-54
2023/09/30 19:23:51;;;;;;;5.20;3.00;;;11.70;99.90;;;;;;7302398;32;20207;-56
2023/09/30 19:27:53;;;;;;;5.07;2.87;;;11.70;99.90;;;;;;7301180;32;20136;-55
2023/09/30 19:31:54;;;;;;;7.43;2.67;;;11.80;99.90;;;;;;7294932;32;20128;-56
2023/09/30 19:35:56;;;;;;;5.75;3.42;;;11.70;99.90;;;;;;7301478;32;20111;-56
2023/09/30 19:39:58;;;;;;;7.75;3.33;;;11.70;99.90;;;;;;7300241;32;20111;-56
2023/09/30 19:44:00;;;;;;;4.87;2.65;;;11.70;99.90;;;;;;7303155;32;20127;-55
2023/09/30 19:48:02;;;;;;;5.35;2.87;;;11.60;99.90;;;;;;7303711;32;20289;-55
2023/09/30 19:52:04;;;;;;;8.73;2.78;;;11.60;99.90;;;;;;7299600;32;20261;-55
2023/09/30 19:56:10;;;;;;;5.20;2.60;;;11.50;99.90;;;;;;7300823;32;20185;-55
2023/09/30 20:00:16;;;;;;;6.43;2.90;;;11.50;99.90;;;;;;7300425;32;20274;-56
2023/09/30 20:04:18;;;;;;;5.95;3.03;;;11.50;99.90;;;;;;7299873;32;20137;-56
2023/09/30 20:08:20;;;;;;;5.32;3.00;;;11.40;99.90;;;;;;7293033;32;20326;-56
2023/09/30 20:12:22;;;;;;;6.47;3.60;;;11.40;99.90;;;;;;7297564;32;20210;-57
2023/09/30 20:16:24;;;;;;;8.52;3.30;;;11.30;99.90;;;;;;7299738;32;20112;-55
2023/09/30 20:20:26;;;;;;;6.32;3.47;;;11.30;99.90;;;;;;7302372;32;20467;-55
2023/09/30 20:24:30;;;;;;;6.20;3.47;;;11.20;99.90;;;;;;7297403;32;21005;-56
2023/09/30 20:28:33;;;;;;;5.68;3.00;;;11.20;99.90;;;;;;7301470;32;20262;-55
2023/09/30 20:32:34;;;;;;;7.05;3.85;;;11.20;99.90;;;;;;7300595;32;21026;-56
2023/09/30 20:36:36;;;;;;;10.48;5.10;;;11.20;99.90;;;;;;7292349;32;20167;-59
2023/09/30 20:40:42;;;;;;;9.77;5.87;;;11.20;99.90;;;;;;7292782;32;20270;-58
2023/09/30 20:44:44;;;;;;;10.23;5.95;;;11.20;99.90;;;;;;7296563;32;20454;-56
2023/09/30 20:48:47;;;;;;;16.35;6.95;;;11.20;99.90;;;;;;7300615;32;20460;-55
2023/09/30 20:52:52;;;;;;;9.35;5.85;;;11.20;99.90;;;;;;7296490;32;20172;-56
2023/09/30 20:56:54;;;;;;;8.98;5.30;;;11.30;99.90;;;;;;7291034;32;20127;-55
2023/09/30 21:00:57;;;;;;;9.35;5.90;;;11.20;99.90;;;;;;7293297;32;20167;-56
2023/09/30 21:04:59;;;;;;;8.32;5.50;;;11.20;99.90;;;;;;7289911;32;20187;-56